createdAt,value
2023-08-25T00:01:32.864Z,99443.34
2023-08-25T00:04:00.911Z,99437.78
2023-08-25T00:06:28.852Z,99431.03
2023-08-25T00:08:56.770Z,99433.03
2023-08-25T00:11:25.950Z,99439.88
2023-08-25T00:13:54.222Z,99441.41
2023-08-25T00:16:22.831Z,99452.88
2023-08-25T00:18:50.763Z,99465.88
2023-08-25T00:21:18.729Z,99466.72
2023-08-25T00:23:46.719Z,99463.84
2023-08-25T00:26:14.635Z,99459.13
2023-08-25T00:28:44.031Z,99457.59
2023-08-25T00:31:12.015Z,99457.66
2023-08-25T00:33:49.409Z,99446.63
2023-08-25T00:36:17.509Z,99444.78
2023-08-25T00:38:45.574Z,99432.97
2023-08-25T00:41:13.513Z,99438.53
2023-08-25T00:43:41.434Z,99427.13
2023-08-25T00:46:11.088Z,99441.88
2023-08-25T00:48:40.354Z,99449.78
2023-08-25T00:51:10.052Z,99447.00
2023-08-25T00:53:39.681Z,99454.88
2023-08-25T00:56:08.079Z,99452.53
2023-08-25T00:58:36.646Z,99442.75
2023-08-25T01:01:07.038Z,99437.81
2023-08-25T01:03:39.273Z,99434.16
2023-08-25T01:06:09.940Z,99426.28
2023-08-25T01:08:39.434Z,99428.06
2023-08-25T01:11:20.111Z,99411.09
2023-08-25T01:13:59.019Z,99410.41
2023-08-25T01:16:35.258Z,99397.31
2023-08-25T01:19:06.749Z,99390.91
2023-08-25T01:21:36.772Z,99380.31
2023-08-25T01:24:12.559Z,99387.03
2023-08-25T01:26:42.806Z,99381.81
2023-08-25T01:29:11.796Z,99380.25
2023-08-25T01:31:40.134Z,99389.78
2023-08-25T01:34:09.084Z,99402.47
2023-08-25T01:36:48.231Z,99396.19
2023-08-25T01:39:17.946Z,99394.09
2023-08-25T01:41:54.325Z,99396.34
2023-08-25T01:44:24.989Z,99392.31
2023-08-25T01:46:55.895Z,99396.56
2023-08-25T01:49:25.437Z,99406.75
2023-08-25T01:51:53.773Z,99419.78
2023-08-25T01:54:21.736Z,99419.41
2023-08-25T01:56:51.086Z,99428.16
2023-08-25T01:59:19.079Z,99438.22
2023-08-25T02:01:47.278Z,99431.56
2023-08-25T02:04:15.279Z,99445.91
2023-08-25T02:06:43.180Z,99459.41
2023-08-25T02:09:12.006Z,99454.13
2023-08-25T02:11:41.383Z,99460.50
2023-08-25T02:14:20.945Z,99443.94
2023-08-25T02:16:49.733Z,99436.41
2023-08-25T02:19:17.754Z,99443.09
2023-08-25T02:21:47.479Z,99441.38
2023-08-25T02:24:15.616Z,99436.22
2023-08-25T02:26:43.666Z,99428.50
2023-08-25T02:29:12.165Z,99418.34
2023-08-25T02:31:42.087Z,99410.75
2023-08-25T02:34:10.214Z,99408.38
2023-08-25T02:36:38.109Z,99396.72
2023-08-25T02:39:06.065Z,99401.41
2023-08-25T02:41:36.183Z,99392.56
2023-08-25T02:44:05.229Z,99383.06
2023-08-25T02:46:34.005Z,99394.13
2023-08-25T02:49:03.255Z,99418.13
2023-08-25T02:51:31.347Z,99423.25
2023-08-25T02:53:59.274Z,99418.66
2023-08-25T02:56:27.279Z,99388.25
2023-08-25T02:58:55.170Z,99394.16
2023-08-25T03:01:23.407Z,99397.94
2023-08-25T03:03:51.412Z,99420.47
2023-08-25T03:06:24.335Z,99434.66
2023-08-25T03:08:52.278Z,99428.28
2023-08-25T03:11:20.336Z,99416.28
2023-08-25T03:13:50.819Z,99413.94
2023-08-25T03:16:19.236Z,99405.69
2023-08-25T03:18:47.122Z,99409.91
2023-08-25T03:21:15.096Z,99390.41
2023-08-25T03:23:44.640Z,99409.13
2023-08-25T03:26:13.325Z,99421.97
2023-08-25T03:28:41.243Z,99425.00
2023-08-25T03:31:09.194Z,99415.50
2023-08-25T03:33:38.670Z,99413.28
2023-08-25T03:36:07.176Z,99413.66
2023-08-25T03:38:35.107Z,99411.47
2023-08-25T03:41:04.432Z,99409.50
2023-08-25T03:43:32.478Z,99410.13
2023-08-25T03:46:00.457Z,99409.22
2023-08-25T03:48:29.256Z,99399.28
2023-08-25T03:50:57.169Z,99398.75
2023-08-25T03:53:25.149Z,99394.44
2023-08-25T03:55:53.397Z,99383.22
2023-08-25T03:58:23.552Z,99378.75
2023-08-25T04:00:53.525Z,99371.84
2023-08-25T04:03:21.584Z,99373.72
2023-08-25T04:05:49.661Z,99368.84
2023-08-25T04:08:17.635Z,99367.16
2023-08-25T04:10:45.779Z,99352.66
2023-08-25T04:13:14.711Z,99351.00
2023-08-25T04:15:44.026Z,99343.91
2023-08-25T04:18:12.504Z,99349.56
2023-08-25T04:20:40.551Z,99359.72
2023-08-25T04:23:10.085Z,99365.00
2023-08-25T04:25:38.374Z,99364.25
2023-08-25T04:28:07.239Z,99362.38
2023-08-25T04:30:35.178Z,99355.66
2023-08-25T04:33:10.134Z,99351.41
2023-08-25T04:35:38.106Z,99350.88
2023-08-25T04:38:06.960Z,99336.00
2023-08-25T04:40:35.631Z,99323.84
2023-08-25T04:43:03.616Z,99338.97
2023-08-25T04:45:31.813Z,99341.50
2023-08-25T04:47:59.815Z,99335.81
2023-08-25T04:50:29.685Z,99344.53
2023-08-25T04:52:57.653Z,99334.06
2023-08-25T04:55:25.536Z,99333.31
2023-08-25T04:57:54.345Z,99328.28
2023-08-25T05:00:22.917Z,99322.66
2023-08-25T05:02:51.485Z,99327.50
2023-08-25T05:05:21.069Z,99350.25
2023-08-25T05:07:50.802Z,99364.19
2023-08-25T05:10:19.431Z,99361.00
2023-08-25T05:12:53.790Z,99347.69
2023-08-25T05:15:21.945Z,99363.03
2023-08-25T05:17:49.955Z,99373.25
2023-08-25T05:20:21.210Z,99362.50
2023-08-25T05:22:52.046Z,99363.00
2023-08-25T05:25:25.210Z,99360.03
2023-08-25T05:27:53.474Z,99349.72
2023-08-25T05:30:21.772Z,99335.19
2023-08-25T05:32:52.420Z,99333.09
2023-08-25T05:35:55.651Z,99317.56
2023-08-25T05:38:25.002Z,99329.06
2023-08-25T05:40:52.971Z,99324.16
2023-08-25T05:43:20.929Z,99338.88
2023-08-25T05:45:48.913Z,99332.09
2023-08-25T05:48:16.975Z,99349.03
2023-08-25T05:50:46.614Z,99353.72
2023-08-25T05:53:14.684Z,99356.13
2023-08-25T05:55:43.934Z,99363.72
2023-08-25T05:58:13.141Z,99376.44
2023-08-25T06:00:41.033Z,99385.41
2023-08-25T06:03:09.989Z,99374.66
2023-08-25T06:05:38.184Z,99387.38
2023-08-25T06:08:06.896Z,99395.56
2023-08-25T06:10:36.246Z,99402.13
2023-08-25T06:13:06.341Z,99403.63
2023-08-25T06:15:34.446Z,99396.66
2023-08-25T06:18:03.384Z,99413.53
2023-08-25T06:20:31.658Z,99413.44
2023-08-25T06:22:59.769Z,99404.97
2023-08-25T06:25:27.690Z,99408.97
2023-08-25T06:27:55.690Z,99416.28
2023-08-25T06:30:25.169Z,99407.47
2023-08-25T06:32:53.527Z,99409.56
2023-08-25T06:35:21.576Z,99410.09
2023-08-25T06:37:49.644Z,99414.84
2023-08-25T06:40:17.712Z,99418.03
2023-08-25T06:42:45.727Z,99406.03
2023-08-25T06:45:13.658Z,99411.63
2023-08-25T06:47:42.979Z,99407.09
2023-08-25T06:50:11.366Z,99409.38
2023-08-25T06:52:39.214Z,99410.81
2023-08-25T06:55:07.620Z,99418.28
2023-08-25T06:57:35.696Z,99412.41
2023-08-25T07:00:06.085Z,99404.66
2023-08-25T07:02:34.074Z,99397.66
2023-08-25T07:05:03.388Z,99396.66
2023-08-25T07:07:32.354Z,99392.91
2023-08-25T07:10:00.313Z,99394.31
2023-08-25T07:12:28.288Z,99400.81
2023-08-25T07:14:56.193Z,99395.50
2023-08-25T07:17:24.148Z,99380.75
2023-08-25T07:19:52.078Z,99383.63
2023-08-25T07:22:21.882Z,99379.09
2023-08-25T07:24:52.003Z,99364.44
2023-08-25T07:27:20.233Z,99371.22
2023-08-25T07:29:48.152Z,99366.84
2023-08-25T07:32:16.136Z,99363.56
2023-08-25T07:34:46.776Z,99383.97
2023-08-25T07:37:14.853Z,99389.91
2023-08-25T07:39:44.389Z,99384.78
2023-08-25T07:42:12.269Z,99390.97
2023-08-25T07:44:40.208Z,99373.03
2023-08-25T07:47:09.010Z,99363.56
2023-08-25T07:49:36.914Z,99372.75
2023-08-25T07:52:05.031Z,99383.66
2023-08-25T07:54:32.936Z,99380.97
2023-08-25T07:57:02.194Z,99381.09
2023-08-25T07:59:30.123Z,99376.75
2023-08-25T08:01:58.023Z,99380.38
2023-08-25T08:04:26.042Z,99374.31
2023-08-25T08:06:53.975Z,99374.19
2023-08-25T08:09:21.902Z,99370.66
2023-08-25T08:11:49.803Z,99367.16
2023-08-25T08:14:21.588Z,99364.59
2023-08-25T08:16:52.308Z,99359.34
2023-08-25T08:19:20.262Z,99363.44
2023-08-25T08:21:48.125Z,99350.47
2023-08-25T08:24:16.131Z,99366.50
2023-08-25T08:26:45.575Z,99377.66
2023-08-25T08:29:13.492Z,99377.66
2023-08-25T08:31:42.705Z,99368.16
2023-08-25T08:34:11.434Z,99380.09
2023-08-25T08:36:39.361Z,99384.19
2023-08-25T08:39:07.292Z,99375.47
2023-08-25T08:41:36.048Z,99380.47
2023-08-25T08:44:07.419Z,99371.00
2023-08-25T08:46:37.735Z,99374.16
2023-08-25T08:49:08.387Z,99370.69
2023-08-25T08:51:37.746Z,99377.50
2023-08-25T08:54:07.289Z,99355.38
2023-08-25T08:56:36.014Z,99377.66
2023-08-25T08:59:05.136Z,99373.28
2023-08-25T09:01:34.526Z,99381.34
2023-08-25T09:04:07.153Z,99380.38
2023-08-25T09:06:41.073Z,99375.97
2023-08-25T09:09:10.170Z,99371.59
2023-08-25T09:11:38.480Z,99382.34
2023-08-25T09:14:06.463Z,99381.38
2023-08-25T09:16:35.270Z,99375.38
2023-08-25T09:19:04.322Z,99372.66
2023-08-25T09:21:32.716Z,99366.63
2023-08-25T09:24:04.205Z,99369.06
2023-08-25T09:26:38.527Z,99385.31
2023-08-25T09:29:06.853Z,99390.56
2023-08-25T09:31:34.995Z,99390.56
2023-08-25T09:34:04.590Z,99386.25
2023-08-25T09:36:32.769Z,99394.78
2023-08-25T09:39:07.893Z,99381.75
2023-08-25T09:41:36.116Z,99393.53
2023-08-25T09:44:04.839Z,99385.72
2023-08-25T09:46:34.469Z,99387.31
2023-08-25T09:49:03.538Z,99387.88
2023-08-25T09:51:38.205Z,99380.81
2023-08-25T09:54:11.070Z,99381.47
2023-08-25T09:56:40.318Z,99381.19
2023-08-25T09:59:09.849Z,99376.75
2023-08-25T10:01:39.089Z,99376.75
2023-08-25T10:04:08.806Z,99375.75
2023-08-25T10:06:39.763Z,99367.03
2023-08-25T10:09:09.982Z,99353.91
2023-08-25T10:11:41.131Z,99346.75
2023-08-25T10:14:11.440Z,99341.53
2023-08-25T10:16:41.481Z,99340.63
2023-08-25T10:19:15.054Z,99342.38
2023-08-25T10:21:44.661Z,99340.69
2023-08-25T10:24:16.097Z,99340.63
2023-08-25T10:26:45.629Z,99337.09
2023-08-25T10:29:16.092Z,99338.63
2023-08-25T10:31:47.937Z,99344.44
2023-08-25T10:34:37.060Z,99352.84
2023-08-25T10:37:06.863Z,99340.72
2023-08-25T10:39:50.070Z,99336.16
2023-08-25T10:42:24.883Z,99333.31
2023-08-25T10:44:56.609Z,99341.56
2023-08-25T10:47:25.470Z,99346.63
2023-08-25T10:49:57.297Z,99334.66
2023-08-25T10:52:25.825Z,99334.66
2023-08-25T10:54:55.988Z,99323.50
2023-08-25T10:57:42.559Z,99315.03
2023-08-25T11:00:28.490Z,99325.00
2023-08-25T11:02:56.647Z,99325.00
2023-08-25T11:05:45.823Z,99321.69
2023-08-25T11:08:30.243Z,99322.59
2023-08-25T11:11:13.789Z,99313.00
2023-08-25T11:13:42.865Z,99318.69
2023-08-25T11:16:12.292Z,99308.97
2023-08-25T11:18:43.833Z,99309.72
2023-08-25T11:21:11.952Z,99307.94
2023-08-25T11:23:40.895Z,99308.69
2023-08-25T11:26:10.317Z,99313.38
2023-08-25T11:28:39.793Z,99308.66
2023-08-25T11:31:08.821Z,99303.28
2023-08-25T11:33:37.142Z,99303.00
2023-08-25T11:36:06.519Z,99296.91
2023-08-25T11:38:34.923Z,99304.34
2023-08-25T11:41:02.865Z,99301.84
2023-08-25T11:43:33.622Z,99303.53
2023-08-25T11:46:03.066Z,99293.22
2023-08-25T11:48:32.661Z,99286.28
2023-08-25T11:51:00.613Z,99281.88
2023-08-25T11:53:28.733Z,99269.78
2023-08-25T11:56:04.057Z,99267.06
2023-08-25T11:58:33.334Z,99277.00
2023-08-25T12:01:06.097Z,99280.69
2023-08-25T12:03:34.353Z,99280.84
2023-08-25T12:06:07.577Z,99266.13
2023-08-25T12:08:36.224Z,99269.19
2023-08-25T12:11:04.846Z,99262.59
2023-08-25T12:13:36.554Z,99276.53
2023-08-25T12:16:06.933Z,99265.25
2023-08-25T12:18:35.701Z,99251.00
2023-08-25T12:21:04.953Z,99257.78
2023-08-25T12:23:37.263Z,99260.69
2023-08-25T12:26:06.252Z,99258.75
2023-08-25T12:28:34.463Z,99262.44
2023-08-25T12:31:03.617Z,99261.09
2023-08-25T12:33:33.624Z,99251.22
2023-08-25T12:36:01.916Z,99255.13
2023-08-25T12:38:30.946Z,99258.81
2023-08-25T12:40:59.940Z,99247.31
2023-08-25T12:43:29.143Z,99246.13
2023-08-25T12:45:57.703Z,99244.06
2023-08-25T12:48:25.786Z,99238.53
2023-08-25T12:50:55.167Z,99243.16
2023-08-25T12:53:23.107Z,99250.31
2023-08-25T12:55:51.056Z,99240.16
2023-08-25T12:58:19.043Z,99241.34
2023-08-25T13:00:47.041Z,99245.31
2023-08-25T13:03:15.361Z,99247.50
2023-08-25T13:05:43.456Z,99244.53
2023-08-25T13:08:12.676Z,99243.41
2023-08-25T13:10:40.604Z,99249.81
2023-08-25T13:13:08.573Z,99236.91
2023-08-25T13:15:36.514Z,99234.44
2023-08-25T13:18:04.736Z,99229.72
2023-08-25T13:20:33.174Z,99235.50
2023-08-25T13:23:02.009Z,99241.00
2023-08-25T13:25:31.223Z,99240.41
2023-08-25T13:27:59.164Z,99243.19
2023-08-25T13:30:27.061Z,99235.69
2023-08-25T13:32:54.968Z,99228.13
2023-08-25T13:35:22.944Z,99225.22
2023-08-25T13:37:51.127Z,99234.22
2023-08-25T13:40:19.077Z,99221.38
2023-08-25T13:42:48.289Z,99211.72
2023-08-25T13:45:17.421Z,99214.25
2023-08-25T13:47:45.326Z,99219.59
2023-08-25T13:50:13.257Z,99221.56
2023-08-25T13:52:41.255Z,99210.69
2023-08-25T13:55:10.817Z,99210.22
2023-08-25T13:57:39.342Z,99226.47
2023-08-25T14:00:11.766Z,99221.47
2023-08-25T14:02:43.300Z,99218.03
2023-08-25T14:05:13.922Z,99217.00
2023-08-25T14:07:42.184Z,99203.47
2023-08-25T14:10:11.048Z,99201.78
2023-08-25T14:12:39.772Z,99201.56
2023-08-25T14:15:10.777Z,99202.75
2023-08-25T14:17:38.708Z,99186.97
2023-08-25T14:20:08.002Z,99190.06
2023-08-25T14:22:35.900Z,99184.41
2023-08-25T14:25:03.805Z,99185.03
2023-08-25T14:27:31.746Z,99186.47
2023-08-25T14:30:00.949Z,99183.06
2023-08-25T14:32:31.329Z,99173.88
2023-08-25T14:34:59.577Z,99192.28
2023-08-25T14:37:27.478Z,99187.34
2023-08-25T14:39:55.517Z,99186.53
2023-08-25T14:42:23.422Z,99197.03
2023-08-25T14:44:51.289Z,99191.84
2023-08-25T14:47:19.755Z,99188.56
2023-08-25T14:49:49.523Z,99199.41
2023-08-25T14:52:19.042Z,99192.81
2023-08-25T14:54:47.165Z,99193.16
2023-08-25T14:57:15.240Z,99192.78
2023-08-25T14:59:43.096Z,99192.19
2023-08-25T15:02:11.044Z,99199.16
2023-08-25T15:04:39.214Z,99195.16
2023-08-25T15:07:08.472Z,99194.19
2023-08-25T15:09:36.381Z,99196.69
2023-08-25T15:12:04.641Z,99201.03
2023-08-25T15:14:32.505Z,99198.94
2023-08-25T15:17:00.462Z,99201.75
2023-08-25T15:19:28.464Z,99199.38
2023-08-25T15:21:56.313Z,99191.88
2023-08-25T15:24:25.834Z,99197.75
2023-08-25T15:26:53.831Z,99183.31
2023-08-25T15:29:23.750Z,99175.31
2023-08-25T15:31:59.036Z,99192.88
2023-08-25T15:34:27.401Z,99176.47
2023-08-25T15:36:55.336Z,99181.41
2023-08-25T15:39:23.329Z,99174.06
2023-08-25T15:41:52.530Z,99172.41
2023-08-25T15:44:20.575Z,99157.94
2023-08-25T15:46:48.575Z,99170.75
2023-08-25T15:49:16.487Z,99164.91
2023-08-25T15:51:44.368Z,99171.09
2023-08-25T15:54:12.267Z,99168.84
2023-08-25T15:56:40.163Z,99163.25
2023-08-25T15:59:09.541Z,99159.81
2023-08-25T16:01:37.453Z,99169.91
2023-08-25T16:04:05.778Z,99167.78
2023-08-25T16:06:33.852Z,99167.56
2023-08-25T16:09:01.765Z,99169.44
2023-08-25T16:11:29.638Z,99171.78
2023-08-25T16:13:58.070Z,99169.44
2023-08-25T16:16:27.411Z,99169.44
2023-08-25T16:18:55.285Z,99156.34
2023-08-25T16:21:23.263Z,99158.13
2023-08-25T16:23:51.180Z,99161.19
2023-08-25T16:26:22.115Z,99168.28
2023-08-25T16:28:50.026Z,99164.25
2023-08-25T16:31:17.944Z,99160.72
2023-08-25T16:33:47.204Z,99165.19
2023-08-25T16:36:15.183Z,99167.25
2023-08-25T16:38:43.141Z,99162.25
2023-08-25T16:41:11.253Z,99163.25
2023-08-25T16:43:39.358Z,99162.22
2023-08-25T16:46:08.138Z,99159.66
2023-08-25T16:48:36.238Z,99156.34
2023-08-25T16:51:05.500Z,99164.72
2023-08-25T16:53:33.417Z,99163.78
2023-08-25T16:56:01.333Z,99157.78
2023-08-25T16:58:29.611Z,99158.84
2023-08-25T17:00:57.700Z,99153.97
2023-08-25T17:03:26.155Z,99155.59
2023-08-25T17:06:00.086Z,99144.16
2023-08-25T17:08:30.539Z,99151.31
2023-08-25T17:10:58.493Z,99140.59
2023-08-25T17:13:26.379Z,99135.03
2023-08-25T17:15:54.311Z,99147.34
2023-08-25T17:18:22.382Z,99150.94
2023-08-25T17:20:50.313Z,99138.09
2023-08-25T17:23:18.334Z,99148.34
2023-08-25T17:25:48.327Z,99143.00
2023-08-25T17:28:17.247Z,99146.28
2023-08-25T17:30:45.187Z,99151.22
2023-08-25T17:33:13.330Z,99149.34
2023-08-25T17:35:41.659Z,99160.13
2023-08-25T17:38:10.305Z,99151.31
2023-08-25T17:40:40.499Z,99161.28
2023-08-25T17:43:10.881Z,99164.34
2023-08-25T17:45:38.893Z,99173.28
2023-08-25T17:48:07.200Z,99176.38
2023-08-25T17:50:35.392Z,99162.84
2023-08-25T17:53:03.254Z,99180.59
2023-08-25T17:55:31.121Z,99175.38
2023-08-25T17:57:58.975Z,99181.41
2023-08-25T18:00:28.215Z,99185.09
2023-08-25T18:02:56.559Z,99190.63
2023-08-25T18:05:24.737Z,99190.06
2023-08-25T18:07:52.666Z,99202.41
2023-08-25T18:10:21.637Z,99195.78
2023-08-25T18:12:49.480Z,99195.16
2023-08-25T18:15:17.345Z,99197.06
2023-08-25T18:17:46.599Z,99204.97
2023-08-25T18:20:14.521Z,99203.50
2023-08-25T18:22:42.562Z,99200.16
2023-08-25T18:25:10.555Z,99209.00
2023-08-25T18:27:38.417Z,99216.09
2023-08-25T18:30:07.756Z,99220.59
2023-08-25T18:32:36.041Z,99216.53
2023-08-25T18:35:06.061Z,99221.06
2023-08-25T18:37:33.897Z,99224.66
2023-08-25T18:40:01.819Z,99232.50
2023-08-25T18:42:30.251Z,99232.59
2023-08-25T18:44:58.092Z,99236.16
2023-08-25T18:47:26.013Z,99235.41
2023-08-25T18:49:53.924Z,99243.31
2023-08-25T18:52:23.325Z,99246.88
2023-08-25T18:54:51.409Z,99255.59
2023-08-25T18:57:23.250Z,99253.13
2023-08-25T18:59:51.993Z,99256.69
2023-08-25T19:02:19.909Z,99250.75
2023-08-25T19:04:48.264Z,99252.66
2023-08-25T19:07:16.258Z,99257.97
2023-08-25T19:09:49.219Z,99248.56
2023-08-25T19:12:17.628Z,99243.50
2023-08-25T19:14:45.461Z,99239.19
2023-08-25T19:17:13.396Z,99244.44
2023-08-25T19:19:41.291Z,99250.50
2023-08-25T19:22:10.249Z,99246.34
2023-08-25T19:24:38.771Z,99243.00
2023-08-25T19:27:08.366Z,99241.34
2023-08-25T19:29:36.259Z,99239.81
2023-08-25T19:32:04.207Z,99238.22
2023-08-25T19:34:32.450Z,99241.72
2023-08-25T19:37:00.314Z,99241.88
2023-08-25T19:39:28.235Z,99245.34
2023-08-25T19:41:56.081Z,99247.19
2023-08-25T19:44:25.577Z,99240.38
2023-08-25T19:46:53.802Z,99233.56
2023-08-25T19:49:21.911Z,99231.91
2023-08-25T19:51:49.865Z,99229.47
2023-08-25T19:54:19.008Z,99233.88
2023-08-25T19:56:46.908Z,99242.59
2023-08-25T19:59:14.826Z,99239.34
2023-08-25T20:01:44.025Z,99241.19
2023-08-25T20:04:11.944Z,99248.31
2023-08-25T20:06:41.602Z,99240.50
2023-08-25T20:09:11.163Z,99245.81
2023-08-25T20:11:39.265Z,99265.31
2023-08-25T20:14:07.150Z,99266.25
2023-08-25T20:16:35.188Z,99260.34
2023-08-25T20:19:04.908Z,99268.97
2023-08-25T20:21:33.925Z,99276.69
2023-08-25T20:24:01.806Z,99278.50
2023-08-25T20:26:29.655Z,99283.91
2023-08-25T20:28:59.704Z,99276.28
2023-08-25T20:31:27.949Z,99283.16
2023-08-25T20:33:55.803Z,99274.69
2023-08-25T20:36:25.122Z,99273.78
2023-08-25T20:38:52.982Z,99275.69
2023-08-25T20:41:21.070Z,99279.16
2023-08-25T20:43:49.054Z,99281.81
2023-08-25T20:46:18.632Z,99284.47
2023-08-25T20:48:48.888Z,99290.50
2023-08-25T20:51:17.217Z,99286.19
2023-08-25T20:53:46.481Z,99275.06
2023-08-25T20:56:14.560Z,99265.69
2023-08-25T20:58:42.594Z,99267.50
2023-08-25T21:01:11.162Z,99249.22
2023-08-25T21:03:39.792Z,99259.34
2023-08-25T21:06:08.112Z,99248.38
2023-08-25T21:08:36.740Z,99239.25
2023-08-25T21:11:06.165Z,99250.28
2023-08-25T21:13:34.770Z,99248.78
2023-08-25T21:16:02.963Z,99250.69
2023-08-25T21:18:31.118Z,99263.94
2023-08-25T21:21:01.097Z,99269.28
2023-08-25T21:23:29.011Z,99279.22
2023-08-25T21:26:00.238Z,99280.19
2023-08-25T21:28:29.867Z,99281.06
2023-08-25T21:30:58.830Z,99280.97
2023-08-25T21:33:27.991Z,99282.28
2023-08-25T21:35:56.035Z,99283.19
2023-08-25T21:38:24.081Z,99281.84
2023-08-25T21:40:51.984Z,99261.97
2023-08-25T21:43:19.925Z,99284.22
2023-08-25T21:45:50.139Z,99287.03
2023-08-25T21:48:18.284Z,99282.03
2023-08-25T21:50:47.806Z,99291.81
2023-08-25T21:53:15.932Z,99286.69
2023-08-25T21:55:44.931Z,99287.31
2023-08-25T21:58:13.531Z,99281.78
2023-08-25T22:00:42.239Z,99283.66
2023-08-25T22:03:11.612Z,99270.00
2023-08-25T22:05:39.594Z,99266.09
2023-08-25T22:08:08.873Z,99275.25
2023-08-25T22:10:37.638Z,99283.84
2023-08-25T22:13:06.597Z,99276.06
2023-08-25T22:15:34.643Z,99257.88
2023-08-25T22:18:02.804Z,99238.09
2023-08-25T22:20:32.105Z,99219.19
2023-08-25T22:23:00.106Z,99207.25
2023-08-25T22:25:28.024Z,99198.03
2023-08-25T22:27:55.984Z,99209.16
2023-08-25T22:30:24.112Z,99215.41
2023-08-25T22:35:23.044Z,99212.25
2023-08-25T22:37:52.373Z,99218.16
2023-08-25T22:40:20.285Z,99202.00
2023-08-25T22:42:48.136Z,99197.50
2023-08-25T22:45:16.305Z,99190.41
2023-08-25T22:47:44.412Z,99181.50
2023-08-25T22:50:12.741Z,99182.16
2023-08-25T22:52:40.683Z,99189.56
2023-08-25T22:55:10.568Z,99193.19
2023-08-25T22:57:38.543Z,99191.69
2023-08-25T23:00:09.661Z,99183.94
2023-08-25T23:02:37.695Z,99179.63
2023-08-25T23:05:06.415Z,99189.25
2023-08-25T23:07:34.363Z,99187.72
2023-08-25T23:10:02.215Z,99189.41
2023-08-25T23:12:31.713Z,99186.66
2023-08-25T23:14:59.726Z,99177.75
2023-08-25T23:17:27.618Z,99170.19
2023-08-25T23:19:55.919Z,99167.81
2023-08-25T23:22:23.883Z,99164.16
2023-08-25T23:24:52.383Z,99168.38
2023-08-25T23:27:20.288Z,99182.09
2023-08-25T23:29:49.552Z,99186.47
2023-08-25T23:32:17.410Z,99189.16
2023-08-25T23:34:46.952Z,99197.31
2023-08-25T23:37:14.903Z,99195.06
2023-08-25T23:39:42.761Z,99195.19
2023-08-25T23:42:10.793Z,99192.63
2023-08-25T23:44:38.781Z,99192.16
2023-08-25T23:47:08.142Z,99199.66
2023-08-25T23:49:36.075Z,99210.16
2023-08-25T23:52:04.761Z,99207.66
2023-08-25T23:54:32.643Z,99205.47
2023-08-25T23:57:00.694Z,99211.09
2023-08-25T23:59:28.756Z,99209.19
